sensor_id;sensor_type;location;lat;lon;timestamp;P1;durP1;ratioP1;P2;durP2;ratioP2
34573;SDS011;20809;49.594;8.734;2022-11-23T00:02:05;8.23;;;1.33;;
34573;SDS011;20809;49.594;8.734;2022-11-23T00:05:06;5.95;;;1.55;;
34573;SDS011;20809;49.594;8.734;2022-11-23T00:08:07;4.50;;;1.15;;
34573;SDS011;20809;49.594;8.734;2022-11-23T00:11:08;5.10;;;1.10;;
34573;SDS011;20809;49.594;8.734;2022-11-23T00:14:09;5.93;;;1.35;;
34573;SDS011;20809;49.594;8.734;2022-11-23T00:17:09;5.60;;;1.52;;
34573;SDS011;20809;49.594;8.734;2022-11-23T00:20:10;3.10;;;1.33;;
34573;SDS011;20809;49.594;8.734;2022-11-23T00:23:11;3.93;;;1.50;;
34573;SDS011;20809;49.594;8.734;2022-11-23T00:26:11;5.50;;;1.00;;
34573;SDS011;20809;49.594;8.734;2022-11-23T00:29:13;3.72;;;1.02;;
34573;SDS011;20809;49.594;8.734;2022-11-23T00:32:13;8.57;;;1.70;;
34573;SDS011;20809;49.594;8.734;2022-11-23T00:35:14;2.47;;;1.00;;
34573;SDS011;20809;49.594;8.734;2022-11-23T00:38:15;7.75;;;1.73;;
34573;SDS011;20809;49.594;8.734;2022-11-23T00:41:16;4.40;;;1.00;;
34573;SDS011;20809;49.594;8.734;2022-11-23T00:44:22;9.75;;;1.02;;
34573;SDS011;20809;49.594;8.734;2022-11-23T00:47:22;2.85;;;1.00;;
34573;SDS011;20809;49.594;8.734;2022-11-23T00:50:23;6.50;;;1.00;;
34573;SDS011;20809;49.594;8.734;2022-11-23T00:53:23;4.28;;;1.10;;
34573;SDS011;20809;49.594;8.734;2022-11-23T00:56:25;6.53;;;1.75;;
34573;SDS011;20809;49.594;8.734;2022-11-23T00:59:26;6.97;;;1.85;;
34573;SDS011;20809;49.594;8.734;2022-11-23T01:02:28;3.90;;;0.90;;
34573;SDS011;20809;49.594;8.734;2022-11-23T01:05:29;6.00;;;1.25;;
34573;SDS011;20809;49.594;8.734;2022-11-23T01:08:31;2.58;;;1.08;;
34573;SDS011;20809;49.594;8.734;2022-11-23T01:11:31;5.13;;;1.45;;
34573;SDS011;20809;49.594;8.734;2022-11-23T01:14:32;5.90;;;1.13;;
34573;SDS011;20809;49.594;8.734;2022-11-23T01:17:33;4.15;;;1.48;;
34573;SDS011;20809;49.594;8.734;2022-11-23T01:20:33;4.73;;;1.07;;
34573;SDS011;20809;49.594;8.734;2022-11-23T01:23:34;5.22;;;1.23;;
34573;SDS011;20809;49.594;8.734;2022-11-23T01:29:36;5.60;;;1.33;;
34573;SDS011;20809;49.594;8.734;2022-11-23T01:32:37;3.60;;;0.88;;
34573;SDS011;20809;49.594;8.734;2022-11-23T01:35:37;6.32;;;0.90;;
34573;SDS011;20809;49.594;8.734;2022-11-23T01:38:39;5.03;;;1.02;;
34573;SDS011;20809;49.594;8.734;2022-11-23T01:41:41;2.75;;;0.90;;
34573;SDS011;20809;49.594;8.734;2022-11-23T01:44:43;7.28;;;1.35;;
34573;SDS011;20809;49.594;8.734;2022-11-23T01:47:44;4.97;;;1.50;;
34573;SDS011;20809;49.594;8.734;2022-11-23T01:50:45;10.43;;;1.52;;
34573;SDS011;20809;49.594;8.734;2022-11-23T01:53:48;2.33;;;0.70;;
34573;SDS011;20809;49.594;8.734;2022-11-23T01:59:10;2.60;;;0.85;;
34573;SDS011;20809;49.594;8.734;2022-11-23T02:02:13;3.63;;;1.15;;
34573;SDS011;20809;49.594;8.734;2022-11-23T02:05:15;5.15;;;1.20;;
34573;SDS011;20809;49.594;8.734;2022-11-23T02:08:20;5.88;;;1.02;;
34573;SDS011;20809;49.594;8.734;2022-11-23T02:11:21;4.28;;;1.13;;
34573;SDS011;20809;49.594;8.734;2022-11-23T02:14:22;5.70;;;1.15;;
34573;SDS011;20809;49.594;8.734;2022-11-23T02:17:22;4.20;;;0.80;;
34573;SDS011;20809;49.594;8.734;2022-11-23T02:20:23;9.30;;;1.20;;
34573;SDS011;20809;49.594;8.734;2022-11-23T02:26:25;3.30;;;1.60;;
34573;SDS011;20809;49.594;8.734;2022-11-23T02:29:28;4.82;;;1.10;;
34573;SDS011;20809;49.594;8.734;2022-11-23T02:32:29;6.20;;;1.23;;
34573;SDS011;20809;49.594;8.734;2022-11-23T02:35:31;4.65;;;1.00;;
34573;SDS011;20809;49.594;8.734;2022-11-23T02:38:32;4.05;;;1.40;;
34573;SDS011;20809;49.594;8.734;2022-11-23T02:41:37;4.35;;;1.27;;
34573;SDS011;20809;49.594;8.734;2022-11-23T02:47:47;6.77;;;1.10;;
34573;SDS011;20809;49.594;8.734;2022-11-23T02:50:48;3.00;;;0.90;;
34573;SDS011;20809;49.594;8.734;2022-11-23T02:53:48;9.00;;;0.90;;
34573;SDS011;20809;49.594;8.734;2022-11-23T02:56:49;7.13;;;1.08;;
34573;SDS011;20809;49.594;8.734;2022-11-23T02:59:50;5.80;;;1.25;;
34573;SDS011;20809;49.594;8.734;2022-11-23T03:02:50;3.70;;;1.90;;
34573;SDS011;20809;49.594;8.734;2022-11-23T03:05:51;4.07;;;0.80;;
34573;SDS011;20809;49.594;8.734;2022-11-23T03:08:52;3.43;;;0.83;;
34573;SDS011;20809;49.594;8.734;2022-11-23T03:11:52;3.42;;;1.10;;
34573;SDS011;20809;49.594;8.734;2022-11-23T03:14:54;5.32;;;1.63;;
34573;SDS011;20809;49.594;8.734;2022-11-23T03:17:55;3.75;;;0.88;;
34573;SDS011;20809;49.594;8.734;2022-11-23T03:21:00;2.88;;;0.65;;
34573;SDS011;20809;49.594;8.734;2022-11-23T03:24:05;9.75;;;1.77;;
34573;SDS011;20809;49.594;8.734;2022-11-23T03:27:06;7.45;;;1.33;;
34573;SDS011;20809;49.594;8.734;2022-11-23T03:30:07;2.90;;;0.93;;
34573;SDS011;20809;49.594;8.734;2022-11-23T03:33:09;6.03;;;1.33;;
34573;SDS011;20809;49.594;8.734;2022-11-23T03:36:09;3.00;;;0.90;;
34573;SDS011;20809;49.594;8.734;2022-11-23T03:39:10;2.50;;;1.10;;
34573;SDS011;20809;49.594;8.734;2022-11-23T03:42:10;5.78;;;1.00;;
34573;SDS011;20809;49.594;8.734;2022-11-23T03:45:11;4.03;;;0.87;;
34573;SDS011;20809;49.594;8.734;2022-11-23T03:48:13;5.78;;;1.38;;
34573;SDS011;20809;49.594;8.734;2022-11-23T03:51:14;3.67;;;0.85;;
34573;SDS011;20809;49.594;8.734;2022-11-23T03:54:15;2.90;;;2.22;;
34573;SDS011;20809;49.594;8.734;2022-11-23T03:57:15;5.15;;;1.88;;
34573;SDS011;20809;49.594;8.734;2022-11-23T04:00:16;4.45;;;1.15;;
34573;SDS011;20809;49.594;8.734;2022-11-23T04:03:17;4.45;;;1.30;;
34573;SDS011;20809;49.594;8.734;2022-11-23T04:06:17;5.28;;;1.08;;
34573;SDS011;20809;49.594;8.734;2022-11-23T04:09:18;6.43;;;2.30;;
34573;SDS011;20809;49.594;8.734;2022-11-23T04:12:19;8.02;;;2.97;;
34573;SDS011;20809;49.594;8.734;2022-11-23T04:15:19;1.90;;;0.80;;
34573;SDS011;20809;49.594;8.734;2022-11-23T04:18:20;3.33;;;0.70;;
34573;SDS011;20809;49.594;8.734;2022-11-23T04:21:21;4.30;;;1.48;;
34573;SDS011;20809;49.594;8.734;2022-11-23T04:24:21;3.70;;;0.95;;
34573;SDS011;20809;49.594;8.734;2022-11-23T04:27:22;4.53;;;0.98;;
34573;SDS011;20809;49.594;8.734;2022-11-23T04:30:23;1.67;;;1.00;;
34573;SDS011;20809;49.594;8.734;2022-11-23T04:33:23;4.88;;;0.95;;
34573;SDS011;20809;49.594;8.734;2022-11-23T04:36:24;5.30;;;1.88;;
34573;SDS011;20809;49.594;8.734;2022-11-23T04:39:26;5.78;;;1.13;;
34573;SDS011;20809;49.594;8.734;2022-11-23T04:42:27;9.30;;;1.50;;
34573;SDS011;20809;49.594;8.734;2022-11-23T04:45:27;6.30;;;2.40;;
34573;SDS011;20809;49.594;8.734;2022-11-23T04:48:28;3.63;;;1.07;;
34573;SDS011;20809;49.594;8.734;2022-11-23T04:51:29;6.77;;;2.70;;
34573;SDS011;20809;49.594;8.734;2022-11-23T04:54:29;4.63;;;1.00;;
34573;SDS011;20809;49.594;8.734;2022-11-23T04:57:30;4.80;;;1.08;;
34573;SDS011;20809;49.594;8.734;2022-11-23T05:00:31;6.00;;;1.37;;
34573;SDS011;20809;49.594;8.734;2022-11-23T05:03:31;9.73;;;2.47;;
34573;SDS011;20809;49.594;8.734;2022-11-23T05:06:35;7.80;;;2.00;;
34573;SDS011;20809;49.594;8.734;2022-11-23T05:09:35;3.97;;;1.08;;
34573;SDS011;20809;49.594;8.734;2022-11-23T05:12:36;2.42;;;0.77;;
34573;SDS011;20809;49.594;8.734;2022-11-23T05:15:37;6.03;;;1.05;;
34573;SDS011;20809;49.594;8.734;2022-11-23T05:18:37;4.47;;;0.88;;
34573;SDS011;20809;49.594;8.734;2022-11-23T05:21:38;5.57;;;1.30;;
34573;SDS011;20809;49.594;8.734;2022-11-23T05:24:39;6.20;;;1.40;;
34573;SDS011;20809;49.594;8.734;2022-11-23T05:27:39;4.13;;;1.02;;
34573;SDS011;20809;49.594;8.734;2022-11-23T05:30:40;2.17;;;1.23;;
34573;SDS011;20809;49.594;8.734;2022-11-23T05:33:41;2.65;;;0.85;;
34573;SDS011;20809;49.594;8.734;2022-11-23T05:36:41;4.13;;;1.33;;
34573;SDS011;20809;49.594;8.734;2022-11-23T05:39:42;2.73;;;0.77;;
34573;SDS011;20809;49.594;8.734;2022-11-23T05:42:43;3.55;;;1.45;;
34573;SDS011;20809;49.594;8.734;2022-11-23T05:45:43;4.43;;;1.35;;
34573;SDS011;20809;49.594;8.734;2022-11-23T05:48:44;2.83;;;1.05;;
34573;SDS011;20809;49.594;8.734;2022-11-23T05:51:45;4.88;;;1.08;;
34573;SDS011;20809;49.594;8.734;2022-11-23T05:54:45;3.85;;;1.13;;
34573;SDS011;20809;49.594;8.734;2022-11-23T05:57:46;2.45;;;0.80;;
34573;SDS011;20809;49.594;8.734;2022-11-23T06:00:46;2.33;;;0.70;;
34573;SDS011;20809;49.594;8.734;2022-11-23T06:03:50;8.60;;;2.07;;
34573;SDS011;20809;49.594;8.734;2022-11-23T06:06:51;8.40;;;1.63;;
34573;SDS011;20809;49.594;8.734;2022-11-23T06:09:53;3.53;;;0.90;;
34573;SDS011;20809;49.594;8.734;2022-11-23T06:12:54;2.63;;;0.70;;
34573;SDS011;20809;49.594;8.734;2022-11-23T06:15:54;4.13;;;1.33;;
34573;SDS011;20809;49.594;8.734;2022-11-23T06:18:56;3.33;;;1.20;;
34573;SDS011;20809;49.594;8.734;2022-11-23T06:21:56;4.90;;;1.10;;
34573;SDS011;20809;49.594;8.734;2022-11-23T06:24:57;3.92;;;1.25;;
34573;SDS011;20809;49.594;8.734;2022-11-23T06:27:58;2.60;;;0.83;;
34573;SDS011;20809;49.594;8.734;2022-11-23T06:31:00;5.53;;;1.40;;
34573;SDS011;20809;49.594;8.734;2022-11-23T06:34:02;3.00;;;1.48;;
34573;SDS011;20809;49.594;8.734;2022-11-23T06:37:03;2.10;;;1.03;;
34573;SDS011;20809;49.594;8.734;2022-11-23T06:40:04;4.10;;;1.00;;
34573;SDS011;20809;49.594;8.734;2022-11-23T06:43:05;5.25;;;1.33;;
34573;SDS011;20809;49.594;8.734;2022-11-23T06:46:05;5.22;;;2.30;;
34573;SDS011;20809;49.594;8.734;2022-11-23T06:49:06;5.20;;;1.02;;
34573;SDS011;20809;49.594;8.734;2022-11-23T06:52:07;7.53;;;2.05;;
34573;SDS011;20809;49.594;8.734;2022-11-23T06:55:08;6.82;;;1.25;;
34573;SDS011;20809;49.594;8.734;2022-11-23T06:58:08;3.08;;;0.95;;
34573;SDS011;20809;49.594;8.734;2022-11-23T07:01:09;5.28;;;1.60;;
34573;SDS011;20809;49.594;8.734;2022-11-23T07:04:10;7.33;;;1.03;;
34573;SDS011;20809;49.594;8.734;2022-11-23T07:07:10;3.00;;;0.90;;
34573;SDS011;20809;49.594;8.734;2022-11-23T07:10:11;3.40;;;0.95;;
34573;SDS011;20809;49.594;8.734;2022-11-23T07:13:12;5.95;;;1.30;;
34573;SDS011;20809;49.594;8.734;2022-11-23T07:16:13;2.55;;;1.05;;
34573;SDS011;20809;49.594;8.734;2022-11-23T07:19:14;6.68;;;1.83;;
34573;SDS011;20809;49.594;8.734;2022-11-23T07:22:15;5.75;;;0.73;;
34573;SDS011;20809;49.594;8.734;2022-11-23T07:25:16;4.68;;;0.80;;
34573;SDS011;20809;49.594;8.734;2022-11-23T07:28:18;4.78;;;1.10;;
34573;SDS011;20809;49.594;8.734;2022-11-23T07:31:19;2.28;;;0.90;;
34573;SDS011;20809;49.594;8.734;2022-11-23T07:34:19;3.55;;;1.50;;
34573;SDS011;20809;49.594;8.734;2022-11-23T07:37:20;4.30;;;0.97;;
34573;SDS011;20809;49.594;8.734;2022-11-23T07:40:20;6.50;;;1.80;;
34573;SDS011;20809;49.594;8.734;2022-11-23T07:43:21;5.63;;;0.68;;
34573;SDS011;20809;49.594;8.734;2022-11-23T07:46:22;5.85;;;1.00;;
34573;SDS011;20809;49.594;8.734;2022-11-23T07:49:22;10.27;;;1.23;;
34573;SDS011;20809;49.594;8.734;2022-11-23T07:52:23;3.97;;;1.00;;
34573;SDS011;20809;49.594;8.734;2022-11-23T07:55:24;3.53;;;0.73;;
34573;SDS011;20809;49.594;8.734;2022-11-23T07:58:25;4.75;;;0.85;;
34573;SDS011;20809;49.594;8.734;2022-11-23T08:01:25;6.40;;;1.17;;
34573;SDS011;20809;49.594;8.734;2022-11-23T08:04:26;7.43;;;1.95;;
34573;SDS011;20809;49.594;8.734;2022-11-23T08:07:27;5.50;;;0.95;;
34573;SDS011;20809;49.594;8.734;2022-11-23T08:10:28;3.17;;;0.80;;
34573;SDS011;20809;49.594;8.734;2022-11-23T08:13:29;7.63;;;1.45;;
34573;SDS011;20809;49.594;8.734;2022-11-23T08:19:31;4.23;;;0.90;;
34573;SDS011;20809;49.594;8.734;2022-11-23T08:22:32;6.00;;;0.90;;
34573;SDS011;20809;49.594;8.734;2022-11-23T08:25:32;2.88;;;1.20;;
34573;SDS011;20809;49.594;8.734;2022-11-23T08:28:33;4.35;;;1.17;;
34573;SDS011;20809;49.594;8.734;2022-11-23T08:31:34;3.80;;;0.60;;
34573;SDS011;20809;49.594;8.734;2022-11-23T08:34:34;4.40;;;1.10;;
34573;SDS011;20809;49.594;8.734;2022-11-23T08:37:35;4.32;;;1.13;;
34573;SDS011;20809;49.594;8.734;2022-11-23T08:40:36;3.17;;;1.03;;
34573;SDS011;20809;49.594;8.734;2022-11-23T08:43:37;2.75;;;0.93;;
34573;SDS011;20809;49.594;8.734;2022-11-23T08:46:37;6.33;;;0.93;;
34573;SDS011;20809;49.594;8.734;2022-11-23T08:49:38;3.30;;;1.30;;
34573;SDS011;20809;49.594;8.734;2022-11-23T08:52:39;2.85;;;0.68;;
34573;SDS011;20809;49.594;8.734;2022-11-23T08:55:40;6.45;;;1.50;;
34573;SDS011;20809;49.594;8.734;2022-11-23T08:58:40;2.70;;;0.93;;
34573;SDS011;20809;49.594;8.734;2022-11-23T09:01:41;11.38;;;3.42;;
34573;SDS011;20809;49.594;8.734;2022-11-23T09:04:42;6.10;;;2.03;;
34573;SDS011;20809;49.594;8.734;2022-11-23T09:07:43;3.70;;;1.67;;
34573;SDS011;20809;49.594;8.734;2022-11-23T09:10:44;2.83;;;1.48;;
34573;SDS011;20809;49.594;8.734;2022-11-23T09:13:44;4.97;;;1.17;;
34573;SDS011;20809;49.594;8.734;2022-11-23T09:16:45;5.25;;;0.90;;
34573;SDS011;20809;49.594;8.734;2022-11-23T09:19:45;2.93;;;1.07;;
34573;SDS011;20809;49.594;8.734;2022-11-23T09:22:51;5.13;;;2.05;;
34573;SDS011;20809;49.594;8.734;2022-11-23T09:25:53;6.88;;;0.95;;
34573;SDS011;20809;49.594;8.734;2022-11-23T09:28:56;5.05;;;0.88;;
34573;SDS011;20809;49.594;8.734;2022-11-23T09:31:57;3.27;;;1.00;;
34573;SDS011;20809;49.594;8.734;2022-11-23T09:34:57;6.27;;;1.07;;
34573;SDS011;20809;49.594;8.734;2022-11-23T09:37:58;2.50;;;0.55;;
34573;SDS011;20809;49.594;8.734;2022-11-23T09:44:50;3.78;;;0.93;;
34573;SDS011;20809;49.594;8.734;2022-11-23T09:51:22;4.90;;;1.92;;
34573;SDS011;20809;49.594;8.734;2022-11-23T09:54:24;4.07;;;0.80;;
34573;SDS011;20809;49.594;8.734;2022-11-23T09:57:28;1.65;;;0.65;;
34573;SDS011;20809;49.594;8.734;2022-11-23T10:00:54;3.25;;;0.77;;
34573;SDS011;20809;49.594;8.734;2022-11-23T10:03:58;3.35;;;0.80;;
34573;SDS011;20809;49.594;8.734;2022-11-23T10:07:17;5.07;;;1.00;;
34573;SDS011;20809;49.594;8.734;2022-11-23T10:10:44;2.83;;;0.90;;
34573;SDS011;20809;49.594;8.734;2022-11-23T10:17:26;3.35;;;0.70;;
34573;SDS011;20809;49.594;8.734;2022-11-23T10:20:51;3.50;;;1.30;;
34573;SDS011;20809;49.594;8.734;2022-11-23T10:24:18;3.13;;;1.00;;
34573;SDS011;20809;49.594;8.734;2022-11-23T10:27:24;5.30;;;1.17;;
34573;SDS011;20809;49.594;8.734;2022-11-23T10:30:24;5.57;;;0.90;;
34573;SDS011;20809;49.594;8.734;2022-11-23T10:33:28;2.13;;;0.77;;
34573;SDS011;20809;49.594;8.734;2022-11-23T10:36:33;3.63;;;0.70;;
34573;SDS011;20809;49.594;8.734;2022-11-23T10:39:35;3.40;;;0.85;;
34573;SDS011;20809;49.594;8.734;2022-11-23T10:42:37;2.30;;;1.27;;
34573;SDS011;20809;49.594;8.734;2022-11-23T10:45:46;6.50;;;1.70;;
34573;SDS011;20809;49.594;8.734;2022-11-23T10:48:47;4.18;;;1.15;;
34573;SDS011;20809;49.594;8.734;2022-11-23T10:51:52;3.95;;;1.45;;
34573;SDS011;20809;49.594;8.734;2022-11-23T10:54:59;6.75;;;1.48;;
34573;SDS011;20809;49.594;8.734;2022-11-23T10:58:01;6.38;;;1.83;;
34573;SDS011;20809;49.594;8.734;2022-11-23T11:01:03;2.28;;;0.95;;
34573;SDS011;20809;49.594;8.734;2022-11-23T11:04:20;3.45;;;0.88;;
34573;SDS011;20809;49.594;8.734;2022-11-23T11:07:28;7.13;;;1.00;;
34573;SDS011;20809;49.594;8.734;2022-11-23T11:10:43;2.30;;;0.70;;
34573;SDS011;20809;49.594;8.734;2022-11-23T11:13:49;4.55;;;1.52;;
34573;SDS011;20809;49.594;8.734;2022-11-23T11:16:50;1.88;;;0.75;;
34573;SDS011;20809;49.594;8.734;2022-11-23T11:19:52;5.78;;;1.38;;
34573;SDS011;20809;49.594;8.734;2022-11-23T11:22:54;7.15;;;1.15;;
34573;SDS011;20809;49.594;8.734;2022-11-23T11:26:06;4.32;;;0.88;;
34573;SDS011;20809;49.594;8.734;2022-11-23T11:29:23;4.68;;;0.80;;
34573;SDS011;20809;49.594;8.734;2022-11-23T11:32:33;6.70;;;0.82;;
34573;SDS011;20809;49.594;8.734;2022-11-23T11:35:52;3.13;;;1.00;;
34573;SDS011;20809;49.594;8.734;2022-11-23T11:38:54;6.97;;;1.75;;
34573;SDS011;20809;49.594;8.734;2022-11-23T11:41:59;3.08;;;0.85;;
34573;SDS011;20809;49.594;8.734;2022-11-23T11:45:05;3.50;;;1.05;;
34573;SDS011;20809;49.594;8.734;2022-11-23T11:48:12;5.00;;;1.40;;
34573;SDS011;20809;49.594;8.734;2022-11-23T11:54:35;3.67;;;1.17;;
34573;SDS011;20809;49.594;8.734;2022-11-23T11:57:42;4.32;;;0.80;;
34573;SDS011;20809;49.594;8.734;2022-11-23T12:00:46;4.70;;;1.83;;
34573;SDS011;20809;49.594;8.734;2022-11-23T12:06:57;3.42;;;0.80;;
34573;SDS011;20809;49.594;8.734;2022-11-23T12:10:17;6.35;;;1.92;;
34573;SDS011;20809;49.594;8.734;2022-11-23T12:13:34;2.25;;;0.98;;
34573;SDS011;20809;49.594;8.734;2022-11-23T12:16:46;2.15;;;1.15;;
34573;SDS011;20809;49.594;8.734;2022-11-23T12:23:05;4.70;;;1.00;;
34573;SDS011;20809;49.594;8.734;2022-11-23T12:26:16;5.32;;;1.17;;
34573;SDS011;20809;49.594;8.734;2022-11-23T12:32:57;2.80;;;1.05;;
34573;SDS011;20809;49.594;8.734;2022-11-23T12:43:20;5.90;;;1.00;;
34573;SDS011;20809;49.594;8.734;2022-11-23T12:50:44;4.93;;;1.95;;
34573;SDS011;20809;49.594;8.734;2022-11-23T12:56:53;5.75;;;1.20;;
34573;SDS011;20809;49.594;8.734;2022-11-23T13:00:02;3.03;;;0.60;;
34573;SDS011;20809;49.594;8.734;2022-11-23T13:10:14;3.80;;;1.00;;
34573;SDS011;20809;49.594;8.734;2022-11-23T13:23:24;9.60;;;3.72;;
34573;SDS011;20809;49.594;8.734;2022-11-23T13:26:25;7.40;;;3.42;;
34573;SDS011;20809;49.594;8.734;2022-11-23T13:29:52;9.88;;;3.85;;
34573;SDS011;20809;49.594;8.734;2022-11-23T13:42:46;3.60;;;1.52;;
34573;SDS011;20809;49.594;8.734;2022-11-23T13:49:28;6.15;;;2.53;;
34573;SDS011;20809;49.594;8.734;2022-11-23T13:52:29;4.13;;;2.47;;
34573;SDS011;20809;49.594;8.734;2022-11-23T13:55:38;5.25;;;1.15;;
34573;SDS011;20809;49.594;8.734;2022-11-23T13:58:54;3.28;;;1.17;;
34573;SDS011;20809;49.594;8.734;2022-11-23T14:02:23;3.33;;;0.90;;
34573;SDS011;20809;49.594;8.734;2022-11-23T14:05:34;3.58;;;0.73;;
34573;SDS011;20809;49.594;8.734;2022-11-23T14:15:37;2.72;;;0.85;;
34573;SDS011;20809;49.594;8.734;2022-11-23T14:22:08;4.30;;;0.90;;
34573;SDS011;20809;49.594;8.734;2022-11-23T14:35:12;3.92;;;0.90;;
34573;SDS011;20809;49.594;8.734;2022-11-23T14:41:57;2.55;;;0.70;;
34573;SDS011;20809;49.594;8.734;2022-11-23T14:45:01;4.18;;;1.08;;
34573;SDS011;20809;49.594;8.734;2022-11-23T14:48:26;2.45;;;0.82;;
34573;SDS011;20809;49.594;8.734;2022-11-23T14:51:27;1.75;;;0.52;;
34573;SDS011;20809;49.594;8.734;2022-11-23T14:54:28;1.45;;;0.73;;
34573;SDS011;20809;49.594;8.734;2022-11-23T14:57:51;2.80;;;0.65;;
34573;SDS011;20809;49.594;8.734;2022-11-23T15:00:57;2.00;;;1.00;;
34573;SDS011;20809;49.594;8.734;2022-11-23T15:04:00;2.03;;;0.65;;
34573;SDS011;20809;49.594;8.734;2022-11-23T15:07:21;3.33;;;0.70;;
34573;SDS011;20809;49.594;8.734;2022-11-23T15:13:40;2.63;;;1.10;;
34573;SDS011;20809;49.594;8.734;2022-11-23T15:16:46;2.83;;;1.10;;
34573;SDS011;20809;49.594;8.734;2022-11-23T15:19:54;3.65;;;1.35;;
34573;SDS011;20809;49.594;8.734;2022-11-23T15:22:57;2.20;;;0.60;;
34573;SDS011;20809;49.594;8.734;2022-11-23T15:26:03;2.85;;;0.82;;
34573;SDS011;20809;49.594;8.734;2022-11-23T15:29:25;2.00;;;0.98;;
34573;SDS011;20809;49.594;8.734;2022-11-23T15:32:30;1.98;;;0.70;;
34573;SDS011;20809;49.594;8.734;2022-11-23T15:35:32;5.40;;;1.15;;
34573;SDS011;20809;49.594;8.734;2022-11-23T15:38:35;2.22;;;0.93;;
34573;SDS011;20809;49.594;8.734;2022-11-23T15:41:37;2.08;;;0.80;;
34573;SDS011;20809;49.594;8.734;2022-11-23T15:44:39;5.18;;;1.33;;
34573;SDS011;20809;49.594;8.734;2022-11-23T15:47:40;1.88;;;1.08;;
34573;SDS011;20809;49.594;8.734;2022-11-23T15:53:50;4.88;;;1.10;;
34573;SDS011;20809;49.594;8.734;2022-11-23T15:56:52;3.47;;;1.20;;
34573;SDS011;20809;49.594;8.734;2022-11-23T16:06:24;3.08;;;1.38;;
34573;SDS011;20809;49.594;8.734;2022-11-23T16:09:43;2.28;;;1.13;;
34573;SDS011;20809;49.594;8.734;2022-11-23T16:12:51;4.75;;;2.53;;
34573;SDS011;20809;49.594;8.734;2022-11-23T16:15:58;3.70;;;2.70;;
34573;SDS011;20809;49.594;8.734;2022-11-23T16:18:59;5.50;;;1.73;;
34573;SDS011;20809;49.594;8.734;2022-11-23T16:22:01;5.63;;;2.90;;
34573;SDS011;20809;49.594;8.734;2022-11-23T16:25:05;4.80;;;2.33;;
34573;SDS011;20809;49.594;8.734;2022-11-23T16:28:28;3.28;;;1.70;;
34573;SDS011;20809;49.594;8.734;2022-11-23T16:34:35;3.08;;;1.52;;
34573;SDS011;20809;49.594;8.734;2022-11-23T16:37:36;2.03;;;1.30;;
34573;SDS011;20809;49.594;8.734;2022-11-23T16:40:37;5.30;;;1.30;;
34573;SDS011;20809;49.594;8.734;2022-11-23T16:46:38;3.87;;;1.17;;
34573;SDS011;20809;49.594;8.734;2022-11-23T16:49:39;4.40;;;1.25;;
34573;SDS011;20809;49.594;8.734;2022-11-23T16:52:40;2.43;;;0.93;;
34573;SDS011;20809;49.594;8.734;2022-11-23T16:55:46;1.13;;;0.73;;
34573;SDS011;20809;49.594;8.734;2022-11-23T16:58:51;2.78;;;0.80;;
34573;SDS011;20809;49.594;8.734;2022-11-23T17:01:53;2.85;;;1.05;;
34573;SDS011;20809;49.594;8.734;2022-11-23T17:04:54;7.35;;;2.35;;
34573;SDS011;20809;49.594;8.734;2022-11-23T17:07:55;2.38;;;0.85;;
34573;SDS011;20809;49.594;8.734;2022-11-23T17:10:55;5.47;;;1.10;;
34573;SDS011;20809;49.594;8.734;2022-11-23T17:13:56;2.63;;;1.30;;
34573;SDS011;20809;49.594;8.734;2022-11-23T17:19:58;2.83;;;1.50;;
34573;SDS011;20809;49.594;8.734;2022-11-23T17:22:59;3.40;;;0.82;;
34573;SDS011;20809;49.594;8.734;2022-11-23T17:26:00;1.95;;;0.60;;
34573;SDS011;20809;49.594;8.734;2022-11-23T17:29:04;2.00;;;0.90;;
34573;SDS011;20809;49.594;8.734;2022-11-23T17:32:08;1.65;;;1.10;;
34573;SDS011;20809;49.594;8.734;2022-11-23T17:35:10;4.95;;;1.17;;
34573;SDS011;20809;49.594;8.734;2022-11-23T17:38:12;2.63;;;1.03;;
34573;SDS011;20809;49.594;8.734;2022-11-23T17:41:15;2.15;;;1.10;;
34573;SDS011;20809;49.594;8.734;2022-11-23T17:44:16;4.85;;;1.58;;
34573;SDS011;20809;49.594;8.734;2022-11-23T17:47:24;2.92;;;2.20;;
34573;SDS011;20809;49.594;8.734;2022-11-23T17:50:29;4.40;;;2.22;;
34573;SDS011;20809;49.594;8.734;2022-11-23T17:53:30;2.60;;;1.60;;
34573;SDS011;20809;49.594;8.734;2022-11-23T17:56:30;3.27;;;1.60;;
34573;SDS011;20809;49.594;8.734;2022-11-23T17:59:31;3.22;;;2.25;;
34573;SDS011;20809;49.594;8.734;2022-11-23T18:02:32;4.10;;;2.33;;
34573;SDS011;20809;49.594;8.734;2022-11-23T18:05:33;3.03;;;1.92;;
34573;SDS011;20809;49.594;8.734;2022-11-23T18:08:34;2.65;;;1.52;;
34573;SDS011;20809;49.594;8.734;2022-11-23T18:11:34;3.80;;;1.60;;
34573;SDS011;20809;49.594;8.734;2022-11-23T18:14:35;5.97;;;1.90;;
34573;SDS011;20809;49.594;8.734;2022-11-23T18:17:36;4.82;;;1.65;;
34573;SDS011;20809;49.594;8.734;2022-11-23T18:20:36;3.10;;;1.73;;
34573;SDS011;20809;49.594;8.734;2022-11-23T18:23:37;2.90;;;1.80;;
34573;SDS011;20809;49.594;8.734;2022-11-23T18:26:38;3.47;;;1.60;;
34573;SDS011;20809;49.594;8.734;2022-11-23T18:29:38;2.25;;;1.38;;
34573;SDS011;20809;49.594;8.734;2022-11-23T18:32:39;3.03;;;1.42;;
34573;SDS011;20809;49.594;8.734;2022-11-23T18:35:40;3.87;;;1.30;;
34573;SDS011;20809;49.594;8.734;2022-11-23T18:38:40;5.47;;;1.40;;
34573;SDS011;20809;49.594;8.734;2022-11-23T18:41:44;3.17;;;1.25;;
34573;SDS011;20809;49.594;8.734;2022-11-23T18:44:45;22.52;;;10.57;;
34573;SDS011;20809;49.594;8.734;2022-11-23T18:47:46;16.57;;;7.20;;
34573;SDS011;20809;49.594;8.734;2022-11-23T18:50:46;8.50;;;4.57;;
34573;SDS011;20809;49.594;8.734;2022-11-23T18:53:47;6.78;;;2.15;;
34573;SDS011;20809;49.594;8.734;2022-11-23T18:56:50;2.03;;;1.48;;
34573;SDS011;20809;49.594;8.734;2022-11-23T18:59:50;3.13;;;1.53;;
34573;SDS011;20809;49.594;8.734;2022-11-23T19:02:52;3.60;;;1.57;;
34573;SDS011;20809;49.594;8.734;2022-11-23T19:05:59;3.15;;;1.35;;
34573;SDS011;20809;49.594;8.734;2022-11-23T19:09:01;6.35;;;1.75;;
34573;SDS011;20809;49.594;8.734;2022-11-23T19:12:01;4.87;;;1.90;;
34573;SDS011;20809;49.594;8.734;2022-11-23T19:15:03;6.10;;;2.13;;
34573;SDS011;20809;49.594;8.734;2022-11-23T19:18:05;5.07;;;1.92;;
34573;SDS011;20809;49.594;8.734;2022-11-23T19:21:16;8.83;;;2.30;;
34573;SDS011;20809;49.594;8.734;2022-11-23T19:24:18;10.57;;;2.63;;
34573;SDS011;20809;49.594;8.734;2022-11-23T19:27:18;4.00;;;2.78;;
34573;SDS011;20809;49.594;8.734;2022-11-23T19:30:19;3.80;;;2.80;;
34573;SDS011;20809;49.594;8.734;2022-11-23T19:33:20;5.38;;;3.30;;
34573;SDS011;20809;49.594;8.734;2022-11-23T19:36:21;4.90;;;3.37;;
34573;SDS011;20809;49.594;8.734;2022-11-23T19:39:23;6.40;;;3.55;;
34573;SDS011;20809;49.594;8.734;2022-11-23T19:42:24;5.72;;;3.50;;
34573;SDS011;20809;49.594;8.734;2022-11-23T19:45:24;6.38;;;3.70;;
34573;SDS011;20809;49.594;8.734;2022-11-23T19:48:25;7.28;;;3.58;;
34573;SDS011;20809;49.594;8.734;2022-11-23T19:51:27;6.85;;;4.32;;
34573;SDS011;20809;49.594;8.734;2022-11-23T19:54:28;6.25;;;4.45;;
34573;SDS011;20809;49.594;8.734;2022-11-23T19:57:29;9.05;;;5.88;;
34573;SDS011;20809;49.594;8.734;2022-11-23T20:00:29;6.43;;;4.77;;
34573;SDS011;20809;49.594;8.734;2022-11-23T20:03:32;8.55;;;5.28;;
34573;SDS011;20809;49.594;8.734;2022-11-23T20:06:34;10.25;;;4.95;;
34573;SDS011;20809;49.594;8.734;2022-11-23T20:09:36;6.18;;;4.85;;
34573;SDS011;20809;49.594;8.734;2022-11-23T20:12:36;8.27;;;4.93;;
34573;SDS011;20809;49.594;8.734;2022-11-23T20:15:37;9.63;;;5.97;;
34573;SDS011;20809;49.594;8.734;2022-11-23T20:18:38;10.30;;;5.65;;
34573;SDS011;20809;49.594;8.734;2022-11-23T20:21:43;8.93;;;5.55;;
34573;SDS011;20809;49.594;8.734;2022-11-23T20:24:44;7.70;;;5.30;;
34573;SDS011;20809;49.594;8.734;2022-11-23T20:27:44;11.23;;;6.67;;
34573;SDS011;20809;49.594;8.734;2022-11-23T20:30:45;9.82;;;5.78;;
34573;SDS011;20809;49.594;8.734;2022-11-23T20:33:46;8.85;;;6.00;;